sensor_id;sensor_type;location;lat;lon;timestamp;P1;durP1;ratioP1;P2;durP2;ratioP2
9080;SDS011;13509;50.760;6.080;2023-04-15T00:00:55;3.73;;;1.40;;
9080;SDS011;13509;50.760;6.080;2023-04-15T00:03:23;3.60;;;1.77;;
9080;SDS011;13509;50.760;6.080;2023-04-15T00:05:52;2.60;;;1.70;;
9080;SDS011;13509;50.760;6.080;2023-04-15T00:08:21;6.23;;;2.10;;
9080;SDS011;13509;50.760;6.080;2023-04-15T00:10:50;6.33;;;1.93;;
9080;SDS011;13509;50.760;6.080;2023-04-15T00:13:18;3.53;;;1.90;;
9080;SDS011;13509;50.760;6.080;2023-04-15T00:15:46;3.83;;;1.90;;
9080;SDS011;13509;50.760;6.080;2023-04-15T00:18:14;5.57;;;2.30;;
9080;SDS011;13509;50.760;6.080;2023-04-15T00:20:42;4.17;;;2.00;;
9080;SDS011;13509;50.760;6.080;2023-04-15T00:23:11;6.57;;;2.20;;
9080;SDS011;13509;50.760;6.080;2023-04-15T00:25:40;2.77;;;1.67;;
9080;SDS011;13509;50.760;6.080;2023-04-15T00:28:08;6.13;;;2.17;;
9080;SDS011;13509;50.760;6.080;2023-04-15T00:30:37;3.90;;;2.30;;
9080;SDS011;13509;50.760;6.080;2023-04-15T00:33:05;8.13;;;2.20;;
9080;SDS011;13509;50.760;6.080;2023-04-15T00:35:33;3.93;;;1.80;;
9080;SDS011;13509;50.760;6.080;2023-04-15T00:38:02;3.83;;;1.83;;
9080;SDS011;13509;50.760;6.080;2023-04-15T00:40:30;2.47;;;1.60;;
9080;SDS011;13509;50.760;6.080;2023-04-15T00:43:00;4.80;;;1.90;;
9080;SDS011;13509;50.760;6.080;2023-04-15T00:45:29;2.90;;;1.70;;
9080;SDS011;13509;50.760;6.080;2023-04-15T00:47:58;4.07;;;1.90;;
9080;SDS011;13509;50.760;6.080;2023-04-15T00:50:26;5.43;;;1.70;;
9080;SDS011;13509;50.760;6.080;2023-04-15T00:52:54;6.37;;;1.63;;
9080;SDS011;13509;50.760;6.080;2023-04-15T00:55:23;4.30;;;1.93;;
9080;SDS011;13509;50.760;6.080;2023-04-15T00:57:51;2.87;;;1.30;;
9080;SDS011;13509;50.760;6.080;2023-04-15T01:00:21;4.23;;;1.80;;
9080;SDS011;13509;50.760;6.080;2023-04-15T01:02:49;2.40;;;1.60;;
9080;SDS011;13509;50.760;6.080;2023-04-15T01:05:18;2.97;;;1.80;;
9080;SDS011;13509;50.760;6.080;2023-04-15T01:07:46;5.03;;;1.90;;
9080;SDS011;13509;50.760;6.080;2023-04-15T01:10:14;3.20;;;1.67;;
9080;SDS011;13509;50.760;6.080;2023-04-15T01:12:43;3.83;;;1.80;;
9080;SDS011;13509;50.760;6.080;2023-04-15T01:15:12;2.53;;;1.40;;
9080;SDS011;13509;50.760;6.080;2023-04-15T01:17:42;6.07;;;1.90;;
9080;SDS011;13509;50.760;6.080;2023-04-15T01:20:10;3.07;;;1.83;;
9080;SDS011;13509;50.760;6.080;2023-04-15T01:22:41;4.97;;;1.87;;
9080;SDS011;13509;50.760;6.080;2023-04-15T01:25:10;7.57;;;2.03;;
9080;SDS011;13509;50.760;6.080;2023-04-15T01:27:40;4.73;;;2.00;;
9080;SDS011;13509;50.760;6.080;2023-04-15T01:30:08;5.60;;;2.00;;
9080;SDS011;13509;50.760;6.080;2023-04-15T01:32:37;5.13;;;1.80;;
9080;SDS011;13509;50.760;6.080;2023-04-15T01:35:05;2.10;;;1.50;;
9080;SDS011;13509;50.760;6.080;2023-04-15T01:37:34;5.50;;;1.70;;
9080;SDS011;13509;50.760;6.080;2023-04-15T01:40:03;4.07;;;1.70;;
9080;SDS011;13509;50.760;6.080;2023-04-15T01:42:31;3.53;;;2.00;;
9080;SDS011;13509;50.760;6.080;2023-04-15T01:45:00;2.40;;;1.70;;
9080;SDS011;13509;50.760;6.080;2023-04-15T01:47:28;4.60;;;1.80;;
9080;SDS011;13509;50.760;6.080;2023-04-15T01:49:57;3.10;;;1.60;;
9080;SDS011;13509;50.760;6.080;2023-04-15T01:52:25;4.77;;;1.50;;
9080;SDS011;13509;50.760;6.080;2023-04-15T01:54:53;5.10;;;1.67;;
9080;SDS011;13509;50.760;6.080;2023-04-15T01:57:22;2.93;;;1.83;;
9080;SDS011;13509;50.760;6.080;2023-04-15T01:59:50;3.33;;;1.90;;
9080;SDS011;13509;50.760;6.080;2023-04-15T02:02:19;5.67;;;1.80;;
9080;SDS011;13509;50.760;6.080;2023-04-15T02:04:48;3.17;;;1.73;;
9080;SDS011;13509;50.760;6.080;2023-04-15T02:07:16;3.07;;;1.33;;
9080;SDS011;13509;50.760;6.080;2023-04-15T02:09:44;9.00;;;1.73;;
9080;SDS011;13509;50.760;6.080;2023-04-15T02:12:12;3.33;;;1.80;;
9080;SDS011;13509;50.760;6.080;2023-04-15T02:14:41;2.30;;;1.50;;
9080;SDS011;13509;50.760;6.080;2023-04-15T02:17:09;3.43;;;1.53;;
9080;SDS011;13509;50.760;6.080;2023-04-15T02:19:38;2.13;;;1.40;;
9080;SDS011;13509;50.760;6.080;2023-04-15T02:22:07;4.03;;;1.50;;
9080;SDS011;13509;50.760;6.080;2023-04-15T02:24:38;4.20;;;1.60;;
9080;SDS011;13509;50.760;6.080;2023-04-15T02:27:06;4.10;;;1.40;;
9080;SDS011;13509;50.760;6.080;2023-04-15T02:29:34;3.63;;;1.57;;
9080;SDS011;13509;50.760;6.080;2023-04-15T02:32:03;3.53;;;1.30;;
9080;SDS011;13509;50.760;6.080;2023-04-15T02:34:31;2.73;;;1.13;;
9080;SDS011;13509;50.760;6.080;2023-04-15T02:37:01;5.77;;;1.20;;
9080;SDS011;13509;50.760;6.080;2023-04-15T02:39:29;2.47;;;1.40;;
9080;SDS011;13509;50.760;6.080;2023-04-15T02:41:57;5.13;;;1.67;;
9080;SDS011;13509;50.760;6.080;2023-04-15T02:44:26;2.10;;;1.47;;
9080;SDS011;13509;50.760;6.080;2023-04-15T02:46:54;4.63;;;1.70;;
9080;SDS011;13509;50.760;6.080;2023-04-15T02:49:23;2.47;;;1.20;;
9080;SDS011;13509;50.760;6.080;2023-04-15T02:51:51;2.77;;;1.40;;
9080;SDS011;13509;50.760;6.080;2023-04-15T02:54:21;1.90;;;1.43;;
9080;SDS011;13509;50.760;6.080;2023-04-15T02:56:50;2.93;;;1.60;;
9080;SDS011;13509;50.760;6.080;2023-04-15T02:59:20;3.40;;;1.87;;
9080;SDS011;13509;50.760;6.080;2023-04-15T03:01:48;2.83;;;1.90;;
9080;SDS011;13509;50.760;6.080;2023-04-15T03:04:17;3.07;;;1.60;;
9080;SDS011;13509;50.760;6.080;2023-04-15T03:06:45;4.43;;;1.70;;
9080;SDS011;13509;50.760;6.080;2023-04-15T03:09:13;4.53;;;1.60;;
9080;SDS011;13509;50.760;6.080;2023-04-15T03:11:43;3.13;;;1.80;;
9080;SDS011;13509;50.760;6.080;2023-04-15T03:14:11;3.53;;;1.67;;
9080;SDS011;13509;50.760;6.080;2023-04-15T03:16:39;3.53;;;1.50;;
9080;SDS011;13509;50.760;6.080;2023-04-15T03:19:07;3.50;;;1.60;;
9080;SDS011;13509;50.760;6.080;2023-04-15T03:21:35;3.70;;;1.73;;
9080;SDS011;13509;50.760;6.080;2023-04-15T03:24:04;4.10;;;1.60;;
9080;SDS011;13509;50.760;6.080;2023-04-15T03:26:32;2.70;;;1.60;;
9080;SDS011;13509;50.760;6.080;2023-04-15T03:29:02;1.97;;;1.33;;
9080;SDS011;13509;50.760;6.080;2023-04-15T03:31:30;5.13;;;1.70;;
9080;SDS011;13509;50.760;6.080;2023-04-15T03:33:58;4.17;;;1.77;;
9080;SDS011;13509;50.760;6.080;2023-04-15T03:36:27;2.40;;;1.53;;
9080;SDS011;13509;50.760;6.080;2023-04-15T03:38:56;2.13;;;1.37;;
9080;SDS011;13509;50.760;6.080;2023-04-15T03:41:25;4.40;;;1.73;;
9080;SDS011;13509;50.760;6.080;2023-04-15T03:43:53;2.83;;;1.50;;
9080;SDS011;13509;50.760;6.080;2023-04-15T03:46:23;2.80;;;1.50;;
9080;SDS011;13509;50.760;6.080;2023-04-15T03:48:51;3.47;;;1.67;;
9080;SDS011;13509;50.760;6.080;2023-04-15T03:51:20;2.57;;;1.70;;
9080;SDS011;13509;50.760;6.080;2023-04-15T03:53:48;3.00;;;1.57;;
9080;SDS011;13509;50.760;6.080;2023-04-15T03:56:16;3.37;;;1.83;;
9080;SDS011;13509;50.760;6.080;2023-04-15T03:58:44;3.90;;;1.30;;
9080;SDS011;13509;50.760;6.080;2023-04-15T04:01:12;5.40;;;1.80;;
9080;SDS011;13509;50.760;6.080;2023-04-15T04:03:43;1.90;;;1.50;;
9080;SDS011;13509;50.760;6.080;2023-04-15T04:06:11;3.47;;;1.70;;
9080;SDS011;13509;50.760;6.080;2023-04-15T04:08:39;1.37;;;1.13;;
9080;SDS011;13509;50.760;6.080;2023-04-15T04:11:07;3.67;;;1.83;;
9080;SDS011;13509;50.760;6.080;2023-04-15T04:13:35;6.20;;;1.77;;
9080;SDS011;13509;50.760;6.080;2023-04-15T04:16:04;2.33;;;1.40;;
9080;SDS011;13509;50.760;6.080;2023-04-15T04:18:32;4.30;;;1.70;;
9080;SDS011;13509;50.760;6.080;2023-04-15T04:21:02;4.63;;;1.50;;
9080;SDS011;13509;50.760;6.080;2023-04-15T04:23:30;3.00;;;1.73;;
9080;SDS011;13509;50.760;6.080;2023-04-15T04:25:58;7.43;;;2.80;;
9080;SDS011;13509;50.760;6.080;2023-04-15T04:28:27;3.90;;;1.73;;
9080;SDS011;13509;50.760;6.080;2023-04-15T04:30:55;3.13;;;1.30;;
9080;SDS011;13509;50.760;6.080;2023-04-15T04:33:23;1.80;;;1.40;;
9080;SDS011;13509;50.760;6.080;2023-04-15T04:35:51;2.13;;;1.10;;
9080;SDS011;13509;50.760;6.080;2023-04-15T04:38:21;1.33;;;1.20;;
9080;SDS011;13509;50.760;6.080;2023-04-15T04:40:49;3.13;;;1.30;;
9080;SDS011;13509;50.760;6.080;2023-04-15T04:43:17;3.63;;;1.10;;
9080;SDS011;13509;50.760;6.080;2023-04-15T04:45:45;2.90;;;1.40;;
9080;SDS011;13509;50.760;6.080;2023-04-15T04:48:13;3.23;;;1.30;;
9080;SDS011;13509;50.760;6.080;2023-04-15T04:50:42;3.83;;;1.53;;
9080;SDS011;13509;50.760;6.080;2023-04-15T04:53:12;5.23;;;1.60;;
9080;SDS011;13509;50.760;6.080;2023-04-15T04:55:41;2.50;;;1.40;;
9080;SDS011;13509;50.760;6.080;2023-04-15T04:58:09;2.70;;;1.30;;
9080;SDS011;13509;50.760;6.080;2023-04-15T05:00:38;11.87;;;2.00;;
9080;SDS011;13509;50.760;6.080;2023-04-15T05:03:07;1.43;;;1.33;;
9080;SDS011;13509;50.760;6.080;2023-04-15T05:05:35;1.60;;;1.30;;
9080;SDS011;13509;50.760;6.080;2023-04-15T05:08:06;1.67;;;1.57;;
9080;SDS011;13509;50.760;6.080;2023-04-15T05:10:34;5.40;;;1.30;;
9080;SDS011;13509;50.760;6.080;2023-04-15T05:13:04;0.83;;;0.83;;
9080;SDS011;13509;50.760;6.080;2023-04-15T05:15:32;2.73;;;1.40;;
9080;SDS011;13509;50.760;6.080;2023-04-15T05:18:02;3.50;;;1.30;;
9080;SDS011;13509;50.760;6.080;2023-04-15T05:20:30;2.57;;;1.07;;
9080;SDS011;13509;50.760;6.080;2023-04-15T05:22:58;3.27;;;1.30;;
9080;SDS011;13509;50.760;6.080;2023-04-15T05:25:26;5.47;;;1.50;;
9080;SDS011;13509;50.760;6.080;2023-04-15T05:27:55;6.13;;;1.20;;
9080;SDS011;13509;50.760;6.080;2023-04-15T05:30:24;2.77;;;1.20;;
9080;SDS011;13509;50.760;6.080;2023-04-15T05:32:52;3.20;;;1.27;;
9080;SDS011;13509;50.760;6.080;2023-04-15T05:35:21;1.43;;;1.30;;
9080;SDS011;13509;50.760;6.080;2023-04-15T05:37:49;2.27;;;1.63;;
9080;SDS011;13509;50.760;6.080;2023-04-15T05:40:17;4.70;;;1.10;;
9080;SDS011;13509;50.760;6.080;2023-04-15T05:42:46;2.20;;;1.13;;
9080;SDS011;13509;50.760;6.080;2023-04-15T05:45:14;2.07;;;1.20;;
9080;SDS011;13509;50.760;6.080;2023-04-15T05:47:43;2.40;;;1.20;;
9080;SDS011;13509;50.760;6.080;2023-04-15T05:50:12;2.23;;;1.40;;
9080;SDS011;13509;50.760;6.080;2023-04-15T05:52:40;4.67;;;1.30;;
9080;SDS011;13509;50.760;6.080;2023-04-15T05:55:08;2.73;;;1.13;;
9080;SDS011;13509;50.760;6.080;2023-04-15T05:57:36;5.23;;;1.60;;
9080;SDS011;13509;50.760;6.080;2023-04-15T06:00:05;2.97;;;1.27;;
9080;SDS011;13509;50.760;6.080;2023-04-15T06:02:33;3.50;;;1.87;;
9080;SDS011;13509;50.760;6.080;2023-04-15T06:05:03;3.23;;;1.40;;
9080;SDS011;13509;50.760;6.080;2023-04-15T06:07:35;3.10;;;1.57;;
9080;SDS011;13509;50.760;6.080;2023-04-15T06:10:03;3.03;;;1.57;;
9080;SDS011;13509;50.760;6.080;2023-04-15T06:12:32;4.63;;;1.67;;
9080;SDS011;13509;50.760;6.080;2023-04-15T06:15:00;2.30;;;1.60;;
9080;SDS011;13509;50.760;6.080;2023-04-15T06:17:29;2.67;;;1.70;;
9080;SDS011;13509;50.760;6.080;2023-04-15T06:19:57;7.13;;;1.87;;
9080;SDS011;13509;50.760;6.080;2023-04-15T06:22:26;5.80;;;1.73;;
9080;SDS011;13509;50.760;6.080;2023-04-15T06:24:55;3.77;;;1.93;;
9080;SDS011;13509;50.760;6.080;2023-04-15T06:27:23;1.77;;;1.43;;
9080;SDS011;13509;50.760;6.080;2023-04-15T06:29:51;2.70;;;1.80;;
9080;SDS011;13509;50.760;6.080;2023-04-15T06:32:19;3.07;;;1.90;;
9080;SDS011;13509;50.760;6.080;2023-04-15T06:34:47;5.57;;;2.13;;
9080;SDS011;13509;50.760;6.080;2023-04-15T06:37:15;2.70;;;1.70;;
9080;SDS011;13509;50.760;6.080;2023-04-15T06:39:45;6.37;;;2.27;;
9080;SDS011;13509;50.760;6.080;2023-04-15T06:42:13;3.63;;;2.33;;
9080;SDS011;13509;50.760;6.080;2023-04-15T06:44:41;4.17;;;2.50;;
9080;SDS011;13509;50.760;6.080;2023-04-15T06:47:10;4.73;;;2.30;;
9080;SDS011;13509;50.760;6.080;2023-04-15T06:49:40;6.20;;;2.53;;
9080;SDS011;13509;50.760;6.080;2023-04-15T06:52:09;4.03;;;2.70;;
9080;SDS011;13509;50.760;6.080;2023-04-15T06:54:37;7.67;;;2.93;;
9080;SDS011;13509;50.760;6.080;2023-04-15T06:57:07;8.57;;;2.73;;
9080;SDS011;13509;50.760;6.080;2023-04-15T06:59:35;5.63;;;2.87;;
9080;SDS011;13509;50.760;6.080;2023-04-15T07:02:03;8.20;;;3.13;;
9080;SDS011;13509;50.760;6.080;2023-04-15T07:04:32;8.93;;;3.20;;
9080;SDS011;13509;50.760;6.080;2023-04-15T07:07:00;5.03;;;2.70;;
9080;SDS011;13509;50.760;6.080;2023-04-15T07:09:28;7.87;;;2.80;;
9080;SDS011;13509;50.760;6.080;2023-04-15T07:11:57;5.07;;;2.83;;
9080;SDS011;13509;50.760;6.080;2023-04-15T07:14:27;9.63;;;3.30;;
9080;SDS011;13509;50.760;6.080;2023-04-15T07:16:55;7.20;;;2.93;;
9080;SDS011;13509;50.760;6.080;2023-04-15T07:19:23;4.03;;;2.60;;
9080;SDS011;13509;50.760;6.080;2023-04-15T07:21:52;8.73;;;3.00;;
9080;SDS011;13509;50.760;6.080;2023-04-15T07:24:20;5.00;;;2.67;;
9080;SDS011;13509;50.760;6.080;2023-04-15T07:26:52;4.57;;;3.10;;
9080;SDS011;13509;50.760;6.080;2023-04-15T07:29:22;5.20;;;3.17;;
9080;SDS011;13509;50.760;6.080;2023-04-15T07:31:52;8.00;;;3.80;;
9080;SDS011;13509;50.760;6.080;2023-04-15T07:34:22;9.80;;;3.23;;
9080;SDS011;13509;50.760;6.080;2023-04-15T07:36:50;7.23;;;3.20;;
9080;SDS011;13509;50.760;6.080;2023-04-15T07:39:19;8.47;;;3.50;;
9080;SDS011;13509;50.760;6.080;2023-04-15T07:41:47;9.60;;;3.83;;
9080;SDS011;13509;50.760;6.080;2023-04-15T07:44:15;7.10;;;3.47;;
9080;SDS011;13509;50.760;6.080;2023-04-15T07:46:43;9.60;;;3.60;;
9080;SDS011;13509;50.760;6.080;2023-04-15T07:49:13;7.37;;;3.30;;
9080;SDS011;13509;50.760;6.080;2023-04-15T07:51:41;6.83;;;3.60;;
9080;SDS011;13509;50.760;6.080;2023-04-15T07:54:09;7.73;;;3.13;;
9080;SDS011;13509;50.760;6.080;2023-04-15T07:56:37;7.73;;;3.60;;
9080;SDS011;13509;50.760;6.080;2023-04-15T07:59:06;6.03;;;3.63;;
9080;SDS011;13509;50.760;6.080;2023-04-15T08:01:35;7.03;;;3.50;;
9080;SDS011;13509;50.760;6.080;2023-04-15T08:04:04;7.63;;;4.10;;
9080;SDS011;13509;50.760;6.080;2023-04-15T08:06:34;6.53;;;3.63;;
9080;SDS011;13509;50.760;6.080;2023-04-15T08:09:05;10.17;;;3.90;;
9080;SDS011;13509;50.760;6.080;2023-04-15T08:11:33;6.23;;;3.90;;
9080;SDS011;13509;50.760;6.080;2023-04-15T08:14:01;6.93;;;3.80;;
9080;SDS011;13509;50.760;6.080;2023-04-15T08:16:29;8.20;;;4.20;;
9080;SDS011;13509;50.760;6.080;2023-04-15T08:18:58;7.27;;;3.80;;
9080;SDS011;13509;50.760;6.080;2023-04-15T08:21:26;5.40;;;3.90;;
9080;SDS011;13509;50.760;6.080;2023-04-15T08:23:57;8.60;;;4.33;;
9080;SDS011;13509;50.760;6.080;2023-04-15T08:26:26;6.83;;;4.10;;
9080;SDS011;13509;50.760;6.080;2023-04-15T08:28:55;8.60;;;4.30;;
9080;SDS011;13509;50.760;6.080;2023-04-15T08:31:25;8.33;;;4.80;;
9080;SDS011;13509;50.760;6.080;2023-04-15T08:33:53;9.07;;;5.00;;
9080;SDS011;13509;50.760;6.080;2023-04-15T08:36:22;7.00;;;4.40;;
9080;SDS011;13509;50.760;6.080;2023-04-15T08:38:50;6.07;;;5.23;;
9080;SDS011;13509;50.760;6.080;2023-04-15T08:41:21;7.93;;;5.47;;
9080;SDS011;13509;50.760;6.080;2023-04-15T08:43:53;8.73;;;5.90;;
9080;SDS011;13509;50.760;6.080;2023-04-15T08:46:23;9.50;;;5.83;;
9080;SDS011;13509;50.760;6.080;2023-04-15T08:48:52;9.07;;;5.93;;
9080;SDS011;13509;50.760;6.080;2023-04-15T08:51:22;11.70;;;5.40;;
9080;SDS011;13509;50.760;6.080;2023-04-15T08:53:50;6.37;;;5.20;;
9080;SDS011;13509;50.760;6.080;2023-04-15T08:56:21;10.23;;;5.60;;
9080;SDS011;13509;50.760;6.080;2023-04-15T08:58:51;11.80;;;6.00;;
9080;SDS011;13509;50.760;6.080;2023-04-15T09:01:20;7.83;;;5.67;;
9080;SDS011;13509;50.760;6.080;2023-04-15T09:03:48;7.50;;;5.23;;
9080;SDS011;13509;50.760;6.080;2023-04-15T09:06:17;8.17;;;5.73;;
9080;SDS011;13509;50.760;6.080;2023-04-15T09:08:45;10.00;;;6.30;;
9080;SDS011;13509;50.760;6.080;2023-04-15T09:11:13;8.73;;;5.67;;
9080;SDS011;13509;50.760;6.080;2023-04-15T09:13:46;10.90;;;6.67;;
9080;SDS011;13509;50.760;6.080;2023-04-15T09:16:14;9.67;;;5.90;;
9080;SDS011;13509;50.760;6.080;2023-04-15T09:18:44;9.17;;;6.07;;
9080;SDS011;13509;50.760;6.080;2023-04-15T09:21:13;9.53;;;6.80;;
9080;SDS011;13509;50.760;6.080;2023-04-15T09:23:53;8.13;;;6.50;;
9080;SDS011;13509;50.760;6.080;2023-04-15T09:26:29;8.60;;;6.60;;
9080;SDS011;13509;50.760;6.080;2023-04-15T09:29:02;9.10;;;6.30;;
9080;SDS011;13509;50.760;6.080;2023-04-15T09:31:31;7.07;;;6.23;;
9080;SDS011;13509;50.760;6.080;2023-04-15T09:33:59;7.93;;;6.57;;
9080;SDS011;13509;50.760;6.080;2023-04-15T09:36:28;8.10;;;6.50;;
9080;SDS011;13509;50.760;6.080;2023-04-15T09:38:56;8.13;;;6.80;;
9080;SDS011;13509;50.760;6.080;2023-04-15T09:41:25;7.73;;;6.07;;
9080;SDS011;13509;50.760;6.080;2023-04-15T09:43:53;6.20;;;4.87;;
9080;SDS011;13509;50.760;6.080;2023-04-15T09:49:07;5.23;;;3.90;;
9080;SDS011;13509;50.760;6.080;2023-04-15T09:51:36;5.90;;;4.40;;
9080;SDS011;13509;50.760;6.080;2023-04-15T09:54:04;6.90;;;4.30;;
9080;SDS011;13509;50.760;6.080;2023-04-15T09:56:33;5.27;;;3.90;;
9080;SDS011;13509;50.760;6.080;2023-04-15T09:59:03;5.20;;;4.03;;
9080;SDS011;13509;50.760;6.080;2023-04-15T10:01:32;7.53;;;4.40;;
9080;SDS011;13509;50.760;6.080;2023-04-15T10:04:01;6.87;;;4.50;;
9080;SDS011;13509;50.760;6.080;2023-04-15T10:06:32;9.37;;;3.80;;
9080;SDS011;13509;50.760;6.080;2023-04-15T10:09:00;5.50;;;4.27;;
9080;SDS011;13509;50.760;6.080;2023-04-15T10:11:29;5.80;;;4.50;;
9080;SDS011;13509;50.760;6.080;2023-04-15T10:13:58;6.03;;;3.93;;
9080;SDS011;13509;50.760;6.080;2023-04-15T10:16:27;6.53;;;4.30;;
9080;SDS011;13509;50.760;6.080;2023-04-15T10:18:56;5.23;;;4.23;;
9080;SDS011;13509;50.760;6.080;2023-04-15T10:21:24;7.07;;;4.53;;
9080;SDS011;13509;50.760;6.080;2023-04-15T10:23:54;5.47;;;4.70;;
9080;SDS011;13509;50.760;6.080;2023-04-15T10:26:23;6.83;;;5.20;;
9080;SDS011;13509;50.760;6.080;2023-04-15T10:28:51;5.30;;;4.80;;
9080;SDS011;13509;50.760;6.080;2023-04-15T10:31:20;8.73;;;4.90;;
9080;SDS011;13509;50.760;6.080;2023-04-15T10:33:48;8.20;;;5.80;;
9080;SDS011;13509;50.760;6.080;2023-04-15T10:36:17;7.33;;;5.70;;
9080;SDS011;13509;50.760;6.080;2023-04-15T10:38:46;7.53;;;5.40;;
9080;SDS011;13509;50.760;6.080;2023-04-15T10:41:16;8.73;;;6.57;;
9080;SDS011;13509;50.760;6.080;2023-04-15T10:43:47;7.90;;;5.40;;
9080;SDS011;13509;50.760;6.080;2023-04-15T10:46:17;7.17;;;4.90;;
9080;SDS011;13509;50.760;6.080;2023-04-15T10:48:46;6.93;;;4.40;;
9080;SDS011;13509;50.760;6.080;2023-04-15T10:51:15;6.80;;;5.00;;
9080;SDS011;13509;50.760;6.080;2023-04-15T10:53:44;5.60;;;4.20;;
9080;SDS011;13509;50.760;6.080;2023-04-15T10:56:12;4.80;;;3.80;;
9080;SDS011;13509;50.760;6.080;2023-04-15T10:58:42;4.50;;;3.20;;
9080;SDS011;13509;50.760;6.080;2023-04-15T11:01:11;4.90;;;3.57;;
9080;SDS011;13509;50.760;6.080;2023-04-15T11:03:41;7.73;;;3.87;;
9080;SDS011;13509;50.760;6.080;2023-04-15T11:06:10;8.70;;;4.30;;
9080;SDS011;13509;50.760;6.080;2023-04-15T11:08:54;5.13;;;3.57;;
9080;SDS011;13509;50.760;6.080;2023-04-15T11:14:09;4.93;;;3.53;;
9080;SDS011;13509;50.760;6.080;2023-04-15T11:16:42;4.80;;;3.37;;
9080;SDS011;13509;50.760;6.080;2023-04-15T11:19:10;5.03;;;3.77;;
9080;SDS011;13509;50.760;6.080;2023-04-15T11:21:38;3.90;;;2.60;;
9080;SDS011;13509;50.760;6.080;2023-04-15T11:24:07;3.73;;;2.80;;
9080;SDS011;13509;50.760;6.080;2023-04-15T11:26:35;4.57;;;2.73;;
9080;SDS011;13509;50.760;6.080;2023-04-15T11:29:03;3.37;;;2.90;;
9080;SDS011;13509;50.760;6.080;2023-04-15T11:31:33;4.60;;;3.00;;
9080;SDS011;13509;50.760;6.080;2023-04-15T11:34:01;3.93;;;3.10;;
9080;SDS011;13509;50.760;6.080;2023-04-15T11:36:30;4.53;;;3.20;;
9080;SDS011;13509;50.760;6.080;2023-04-15T11:38:58;3.73;;;3.33;;
9080;SDS011;13509;50.760;6.080;2023-04-15T11:41:27;7.20;;;3.80;;
9080;SDS011;13509;50.760;6.080;2023-04-15T11:43:55;4.40;;;2.67;;
9080;SDS011;13509;50.760;6.080;2023-04-15T11:46:27;2.70;;;2.30;;
9080;SDS011;13509;50.760;6.080;2023-04-15T11:48:57;4.90;;;2.50;;
9080;SDS011;13509;50.760;6.080;2023-04-15T11:51:25;4.63;;;2.63;;
9080;SDS011;13509;50.760;6.080;2023-04-15T11:53:58;5.40;;;2.73;;
9080;SDS011;13509;50.760;6.080;2023-04-15T11:56:27;4.37;;;2.37;;
9080;SDS011;13509;50.760;6.080;2023-04-15T11:58:56;2.60;;;2.40;;
9080;SDS011;13509;50.760;6.080;2023-04-15T12:01:31;2.60;;;2.30;;
9080;SDS011;13509;50.760;6.080;2023-04-15T12:04:01;4.53;;;2.03;;
9080;SDS011;13509;50.760;6.080;2023-04-15T12:06:31;2.80;;;2.50;;
9080;SDS011;13509;50.760;6.080;2023-04-15T12:09:02;4.17;;;2.87;;
9080;SDS011;13509;50.760;6.080;2023-04-15T12:11:31;3.13;;;2.70;;
9080;SDS011;13509;50.760;6.080;2023-04-15T12:14:02;2.60;;;2.40;;
9080;SDS011;13509;50.760;6.080;2023-04-15T12:16:32;3.67;;;2.40;;
9080;SDS011;13509;50.760;6.080;2023-04-15T12:19:15;2.87;;;2.47;;
9080;SDS011;13509;50.760;6.080;2023-04-15T12:21:44;4.13;;;2.73;;
9080;SDS011;13509;50.760;6.080;2023-04-15T12:24:13;2.93;;;2.63;;
9080;SDS011;13509;50.760;6.080;2023-04-15T12:26:44;2.80;;;2.50;;
9080;SDS011;13509;50.760;6.080;2023-04-15T12:29:13;3.60;;;3.07;;
9080;SDS011;13509;50.760;6.080;2023-04-15T12:31:46;3.83;;;2.93;;
9080;SDS011;13509;50.760;6.080;2023-04-15T12:34:16;4.67;;;2.90;;
9080;SDS011;13509;50.760;6.080;2023-04-15T12:36:45;5.67;;;3.30;;
9080;SDS011;13509;50.760;6.080;2023-04-15T12:39:13;3.80;;;3.40;;
9080;SDS011;13509;50.760;6.080;2023-04-15T12:41:41;4.90;;;3.57;;
9080;SDS011;13509;50.760;6.080;2023-04-15T12:44:09;4.70;;;3.53;;
9080;SDS011;13509;50.760;6.080;2023-04-15T12:46:38;4.30;;;3.73;;
9080;SDS011;13509;50.760;6.080;2023-04-15T12:49:06;3.83;;;3.40;;
9080;SDS011;13509;50.760;6.080;2023-04-15T12:51:36;5.13;;;3.20;;
9080;SDS011;13509;50.760;6.080;2023-04-15T12:54:04;3.83;;;3.40;;
9080;SDS011;13509;50.760;6.080;2023-04-15T12:56:33;4.03;;;2.90;;
9080;SDS011;13509;50.760;6.080;2023-04-15T12:59:01;3.97;;;3.10;;
9080;SDS011;13509;50.760;6.080;2023-04-15T13:01:29;4.17;;;2.83;;
9080;SDS011;13509;50.760;6.080;2023-04-15T13:03:57;9.07;;;3.83;;
9080;SDS011;13509;50.760;6.080;2023-04-15T13:06:26;3.90;;;3.27;;
9080;SDS011;13509;50.760;6.080;2023-04-15T13:08:56;3.90;;;3.30;;
9080;SDS011;13509;50.760;6.080;2023-04-15T13:11:24;4.27;;;3.23;;
9080;SDS011;13509;50.760;6.080;2023-04-15T13:13:52;4.07;;;2.77;;
9080;SDS011;13509;50.760;6.080;2023-04-15T13:16:21;4.10;;;3.43;;
9080;SDS011;13509;50.760;6.080;2023-04-15T13:18:49;5.47;;;3.70;;
9080;SDS011;13509;50.760;6.080;2023-04-15T13:21:18;4.13;;;3.30;;
9080;SDS011;13509;50.760;6.080;2023-04-15T13:23:47;3.17;;;2.87;;
9080;SDS011;13509;50.760;6.080;2023-04-15T13:26:17;3.23;;;2.80;;
9080;SDS011;13509;50.760;6.080;2023-04-15T13:28:46;4.10;;;2.90;;
9080;SDS011;13509;50.760;6.080;2023-04-15T13:31:14;2.80;;;2.60;;
9080;SDS011;13509;50.760;6.080;2023-04-15T13:33:42;2.87;;;2.57;;
9080;SDS011;13509;50.760;6.080;2023-04-15T13:36:11;3.50;;;2.83;;
9080;SDS011;13509;50.760;6.080;2023-04-15T13:38:39;4.57;;;3.10;;
9080;SDS011;13509;50.760;6.080;2023-04-15T13:41:07;3.10;;;2.80;;
9080;SDS011;13509;50.760;6.080;2023-04-15T13:43:37;5.50;;;2.93;;
9080;SDS011;13509;50.760;6.080;2023-04-15T13:46:05;4.70;;;3.50;;
9080;SDS011;13509;50.760;6.080;2023-04-15T13:48:34;4.60;;;3.00;;
9080;SDS011;13509;50.760;6.080;2023-04-15T13:51:02;4.97;;;3.60;;
9080;SDS011;13509;50.760;6.080;2023-04-15T13:53:30;3.93;;;3.40;;
9080;SDS011;13509;50.760;6.080;2023-04-15T13:56:04;4.10;;;3.37;;
9080;SDS011;13509;50.760;6.080;2023-04-15T13:58:32;5.97;;;2.63;;
9080;SDS011;13509;50.760;6.080;2023-04-15T14:01:01;3.00;;;2.50;;
9080;SDS011;13509;50.760;6.080;2023-04-15T14:03:31;3.10;;;2.60;;
9080;SDS011;13509;50.760;6.080;2023-04-15T14:06:00;3.50;;;2.90;;
9080;SDS011;13509;50.760;6.080;2023-04-15T14:08:28;4.47;;;2.83;;
9080;SDS011;13509;50.760;6.080;2023-04-15T14:10:57;4.13;;;2.60;;
9080;SDS011;13509;50.760;6.080;2023-04-15T14:13:25;4.07;;;2.87;;
9080;SDS011;13509;50.760;6.080;2023-04-15T14:15:53;2.93;;;2.60;;
9080;SDS011;13509;50.760;6.080;2023-04-15T14:18:23;3.63;;;2.93;;
9080;SDS011;13509;50.760;6.080;2023-04-15T14:20:51;3.60;;;2.63;;
9080;SDS011;13509;50.760;6.080;2023-04-15T14:23:19;3.07;;;2.53;;
9080;SDS011;13509;50.760;6.080;2023-04-15T14:25:49;4.00;;;2.50;;
9080;SDS011;13509;50.760;6.080;2023-04-15T14:28:17;2.73;;;2.53;;
9080;SDS011;13509;50.760;6.080;2023-04-15T14:30:46;3.80;;;2.57;;
9080;SDS011;13509;50.760;6.080;2023-04-15T14:33:14;3.73;;;2.70;;
9080;SDS011;13509;50.760;6.080;2023-04-15T14:35:43;2.60;;;2.20;;
9080;SDS011;13509;50.760;6.080;2023-04-15T14:38:12;4.67;;;2.70;;
9080;SDS011;13509;50.760;6.080;2023-04-15T14:40:40;3.33;;;2.40;;
9080;SDS011;13509;50.760;6.080;2023-04-15T14:43:08;6.70;;;2.77;;
9080;SDS011;13509;50.760;6.080;2023-04-15T14:45:36;4.23;;;2.53;;
9080;SDS011;13509;50.760;6.080;2023-04-15T14:48:09;3.07;;;2.33;;
9080;SDS011;13509;50.760;6.080;2023-04-15T14:50:38;2.77;;;2.30;;
9080;SDS011;13509;50.760;6.080;2023-04-15T14:53:07;3.77;;;2.30;;
9080;SDS011;13509;50.760;6.080;2023-04-15T14:55:36;2.93;;;2.10;;
9080;SDS011;13509;50.760;6.080;2023-04-15T14:58:04;3.40;;;1.97;;
9080;SDS011;13509;50.760;6.080;2023-04-15T15:00:34;3.10;;;2.40;;
9080;SDS011;13509;50.760;6.080;2023-04-15T15:03:04;2.77;;;2.30;;
9080;SDS011;13509;50.760;6.080;2023-04-15T15:05:38;4.37;;;2.47;;
9080;SDS011;13509;50.760;6.080;2023-04-15T15:08:08;2.80;;;2.30;;
9080;SDS011;13509;50.760;6.080;2023-04-15T15:10:36;2.90;;;2.17;;
9080;SDS011;13509;50.760;6.080;2023-04-15T15:13:14;4.53;;;2.30;;
9080;SDS011;13509;50.760;6.080;2023-04-15T15:15:43;2.20;;;2.00;;